^^
Meteo Knjazevac Station Historical Data
Daily Summary for May 16, 2022 Units:  English    Metric   Both
Daily Weekly Monthly Yearly Custom
  High: Low: Average:
Temperature: 85.6 °F 44.2 °F 66.4 °F
Dew Point: 57.4 °F 40.3 °F 49.9 °F
Humidity: 89% 34% 60%
Wind Speed: 8mph 0mph 2.2mph
Wind Gust: 12mph - -
Wind- - WSW
Pressure: 30.17 in 30.06 in -
Precipitation: 0.00 in    
Historical Graphs
 
 
Tabular Data for May 16, 2022
Time Temperature Dew Point Pressure Wind Wind Speed Wind Gust Humidity Rainfall Rate (Hourly) solar Conditions
00:00 54.7 °F 45.8 °F 30.15 in WNW 1 mph 2 mph 72% 0.00 in 0 W/m2
00:10 54 °F 45.5 °F 30.15 in Calm   2 mph 73% 0.00 in 0 W/m2
00:20 53.2 °F 44.8 °F 30.15 in West 1 mph 2 mph 73% 0.00 in 0 W/m2
00:30 52.2 °F 44.2 °F 30.15 in Calm   2 mph 74% 0.00 in 0 W/m2
00:40 51.7 °F 44 °F 30.15 in Calm   2 mph 75% 0.00 in 0 W/m2
00:50 51.3 °F 43.6 °F 30.15 in West 1 mph 3 mph 75% 0.00 in 0 W/m2
01:00 50.6 °F 43.6 °F 30.15 in WSW 2 mph 3 mph 77% 0.00 in 0 W/m2
01:10 50.2 °F 43.2 °F 30.15 in WNW 2 mph 5 mph 77% 0.00 in 0 W/m2
01:20 50.2 °F 43.6 °F 30.15 in WNW 1 mph 5 mph 78% 0.00 in 0 W/m2
01:30 49.9 °F 43.3 °F 30.15 in NNW 1 mph 2 mph 78% 0.00 in 0 W/m2
01:40 49.5 °F 42.9 °F 30.15 in NW 1 mph 2 mph 78% 0.00 in 0 W/m2
01:50 48.9 °F 42.7 °F 30.15 in West 1 mph 3 mph 79% 0.00 in 0 W/m2
02:00 48.7 °F 42.5 °F 30.15 in West 2 mph 4 mph 79% 0.00 in 0 W/m2
02:10 48.7 °F 42.8 °F 30.15 in West 2 mph 3 mph 80% 0.00 in 0 W/m2
02:20 48.6 °F 42.7 °F 30.15 in WNW 1 mph 3 mph 80% 0.00 in 0 W/m2
02:30 48.2 °F 42.3 °F 30.15 in West 1 mph 3 mph 80% 0.00 in 0 W/m2
02:40 47.5 °F 41.7 °F 30.15 in WSW 1 mph 3 mph 80% 0.00 in 0 W/m2
02:50 47.3 °F 41.8 °F 30.15 in West 3 mph 6 mph 81% 0.00 in 0 W/m2
03:00 47.3 °F 41.8 °F 30.15 in West 1 mph 6 mph 81% 0.00 in 0 W/m2
03:10 47.1 °F 41.6 °F 30.15 in West 2 mph 3 mph 81% 0.00 in 0 W/m2
03:20 46.9 °F 42 °F 30.15 in West 2 mph 3 mph 83% 0.00 in 0 W/m2
03:30 46.9 °F 42 °F 30.15 in Calm   3 mph 83% 0.00 in 0 W/m2
03:40 46.6 °F 41.7 °F 30.15 in West 1 mph 3 mph 83% 0.00 in 0 W/m2
03:50 46.2 °F 41.3 °F 30.15 in West 2 mph 4 mph 83% 0.00 in 0 W/m2
04:00 46 °F 41.5 °F 30.15 in West 2 mph 3 mph 84% 0.00 in 0 W/m2
04:10 45.7 °F 41.1 °F 30.15 in West 1 mph 3 mph 84% 0.00 in 0 W/m2
04:20 45.3 °F 40.8 °F 30.15 in West 1 mph 3 mph 84% 0.00 in 0 W/m2
04:30 45.1 °F 40.6 °F 30.15 in West 1 mph 2 mph 84% 0.00 in 0 W/m2
04:40 45 °F 40.7 °F 30.15 in WNW 1 mph 3 mph 85% 0.00 in 0 W/m2
04:50 45 °F 40.7 °F 30.15 in West 2 mph 5 mph 85% 0.00 in 0 W/m2
05:00 44.8 °F 40.8 °F 30.16 in West 2 mph 5 mph 86% 0.00 in 0 W/m2
05:10 44.6 °F 40.7 °F 30.16 in Calm   4 mph 86% 0.00 in 5 W/m2
05:20 44.4 °F 40.5 °F 30.16 in WNW 1 mph 2 mph 86% 0.00 in 11 W/m2
05:30 44.4 °F 40.5 °F 30.16 in West 2 mph 3 mph 86% 0.00 in 19 W/m2
05:40 44.2 °F 40.3 °F 30.16 in West 2 mph 3 mph 86% 0.00 in 27 W/m2
05:50 44.6 °F 41.6 °F 30.17 in WNW 2 mph 4 mph 89% 0.00 in 35 W/m2
06:00 45 °F 41.6 °F 30.17 in WNW 1 mph 3 mph 88% 0.00 in 66 W/m2
06:10 45.1 °F 41.8 °F 30.17 in West 2 mph 5 mph 88% 0.00 in 87 W/m2
06:20 45.3 °F 42 °F 30.17 in West 2 mph 3 mph 88% 0.00 in 108 W/m2
06:30 45.7 °F 42.6 °F 30.17 in West 2 mph 3 mph 89% 0.00 in 135 W/m2
06:40 46 °F 43 °F 30.17 in West 1 mph 3 mph 89% 0.00 in 161 W/m2
06:50 46.7 °F 43.7 °F 30.17 in West 2 mph 6 mph 89% 0.00 in 191 W/m2
07:00 48 °F 44.9 °F 30.17 in West 2 mph 5 mph 89% 0.00 in 218 W/m2
07:10 48.9 °F 45.5 °F 30.17 in West 1 mph 4 mph 88% 0.00 in 246 W/m2
07:20 50 °F 46 °F 30.17 in West 1 mph 4 mph 86% 0.00 in 279 W/m2
07:30 51.4 °F 47.1 °F 30.17 in West 2 mph 4 mph 85% 0.00 in 311 W/m2
07:40 52.5 °F 48.1 °F 30.17 in Calm   3 mph 85% 0.00 in 342 W/m2
07:50 53.9 °F 48.9 °F 30.17 in NW 1 mph 4 mph 83% 0.00 in 374 W/m2
08:00 55.2 °F 49.1 °F 30.17 in WNW 2 mph 4 mph 80% 0.00 in 407 W/m2
08:10 56.6 °F 50.5 °F 30.17 in WSW 1 mph 3 mph 80% 0.00 in 439 W/m2
08:20 58.4 °F 51.6 °F 30.17 in WSW 2 mph 3 mph 78% 0.00 in 474 W/m2
08:30 61.3 °F 53 °F 30.17 in WSW 1 mph 3 mph 74% 0.00 in 507 W/m2
08:40 63.6 °F 53.7 °F 30.17 in Calm   3 mph 70% 0.00 in 548 W/m2
08:50 65.8 °F 54.9 °F 30.17 in South 1 mph 4 mph 68% 0.00 in 585 W/m2
09:00 67.4 °F 56.1 °F 30.17 in SW 1 mph 4 mph 67% 0.00 in 619 W/m2
09:10 69.2 °F 56.1 °F 30.17 in South 2 mph 4 mph 63% 0.00 in 648 W/m2
09:20 70.7 °F 55.7 °F 30.17 in NE 1 mph 6 mph 59% 0.00 in 677 W/m2
09:30 71.9 °F 56.8 °F 30.17 in SSE 1 mph 5 mph 59% 0.00 in 709 W/m2
09:40 73.2 °F 56.1 °F 30.16 in SSE 3 mph 6 mph 55% 0.00 in 733 W/m2
09:50 74.1 °F 55.4 °F 30.16 in South 1 mph 5 mph 52% 0.00 in 762 W/m2
10:00 75 °F 55.1 °F 30.16 in Calm   5 mph 50% 0.00 in 788 W/m2
10:10 75.7 °F 56.9 °F 30.16 in NNW 1 mph 3 mph 52% 0.00 in 808 W/m2
10:20 76.8 °F 55.6 °F 30.16 in North 1 mph 7 mph 48% 0.00 in 829 W/m2
10:30 77.9 °F 56 °F 30.15 in NNE 3 mph 7 mph 47% 0.00 in 847 W/m2
10:40 78.3 °F 54.6 °F 30.15 in NNE 1 mph 8 mph 44% 0.00 in 125 W/m2
10:50 79.2 °F 55.4 °F 30.15 in NE 6 mph 7 mph 44% 0.00 in 878 W/m2
11:00 79.5 °F 54.4 °F 30.15 in South 2 mph 7 mph 42% 0.00 in 892 W/m2
11:10 80 °F 55.5 °F 30.15 in NNE 2 mph 10 mph 43% 0.00 in 642 W/m2
11:20 80.4 °F 53.9 °F 30.14 in South 5 mph 9 mph 40% 0.00 in 915 W/m2
11:30 80.8 °F 55.5 °F 30.15 in NNE 1 mph 10 mph 42% 0.00 in 924 W/m2
11:40 80.6 °F 55.4 °F 30.14 in ENE 1 mph 10 mph 42% 0.00 in 932 W/m2
11:50 80.8 °F 54.2 °F 30.14 in South 3 mph 7 mph 40% 0.00 in 938 W/m2
12:00 81.3 °F 54.7 °F 30.14 in SSE 3 mph 9 mph 40% 0.00 in 943 W/m2
12:10 81.8 °F 56.5 °F 30.13 in East 6 mph 12 mph 42% 0.00 in 946 W/m2
12:20 82.2 °F 55.5 °F 30.13 in North 2 mph 9 mph 40% 0.00 in 948 W/m2
12:30 82.4 °F 55 °F 30.13 in NNE 1 mph 8 mph 39% 0.00 in 380 W/m2
12:40 81.3 °F 54.7 °F 30.13 in SSW 3 mph 7 mph 40% 0.00 in 946 W/m2
12:50 81.9 °F 56.5 °F 30.12 in South 3 mph 7 mph 42% 0.00 in 943 W/m2
13:00 82.8 °F 57.3 °F 30.12 in SW 2 mph 12 mph 42% 0.00 in 939 W/m2
13:10 83.3 °F 55.8 °F 30.12 in SSW 5 mph 12 mph 39% 0.00 in 932 W/m2
13:20 83.1 °F 55.6 °F 30.12 in SSW 3 mph 10 mph 39% 0.00 in 925 W/m2
13:30 83.7 °F 56.8 °F 30.11 in SW 3 mph 10 mph 40% 0.00 in 915 W/m2
13:40 84.4 °F 57.4 °F 30.11 in West 2 mph 8 mph 40% 0.00 in 905 W/m2
13:50 84.7 °F 57 °F 30.11 in WNW 3 mph 8 mph 39% 0.00 in 892 W/m2
14:00 85.3 °F 56.8 °F 30.11 in WSW 2 mph 7 mph 38% 0.00 in 225 W/m2
14:10 84.4 °F 56 °F 30.10 in SW 1 mph 7 mph 38% 0.00 in 230 W/m2
14:20 84.4 °F 55.3 °F 30.10 in NNW 8 mph 12 mph 37% 0.00 in 847 W/m2
14:30 84 °F 56.4 °F 30.10 in NNW 3 mph 12 mph 39% 0.00 in 307 W/m2
14:40 83.3 °F 55.8 °F 30.09 in North 3 mph 7 mph 39% 0.00 in 190 W/m2
14:50 82.4 °F 55 °F 30.09 in NW 2 mph 6 mph 39% 0.00 in 194 W/m2
15:00 82.9 °F 55.4 °F 30.09 in WNW 2 mph 5 mph 39% 0.00 in 769 W/m2
15:10 84 °F 55.7 °F 30.08 in West 1 mph 5 mph 38% 0.00 in 746 W/m2
15:20 84.7 °F 56.3 °F 30.08 in WSW 3 mph 8 mph 38% 0.00 in 723 W/m2
15:30 85.1 °F 56.6 °F 30.08 in West 3 mph 10 mph 38% 0.00 in 698 W/m2
15:40 85.5 °F 56.2 °F 30.08 in WNW 5 mph 8 mph 37% 0.00 in 672 W/m2
15:50 85.6 °F 54.8 °F 30.08 in West 5 mph 9 mph 35% 0.00 in 646 W/m2
16:00 85.5 °F 54.7 °F 30.08 in WNW 5 mph 8 mph 35% 0.00 in 618 W/m2
16:10 85.6 °F 54.8 °F 30.08 in NW 5 mph 9 mph 35% 0.00 in 590 W/m2
16:20 85.6 °F 54.8 °F 30.08 in WNW 3 mph 8 mph 35% 0.00 in 561 W/m2
16:30 85.6 °F 54.8 °F 30.08 in WNW 5 mph 8 mph 35% 0.00 in 532 W/m2
16:40 85.3 °F 54.5 °F 30.07 in West 2 mph 5 mph 35% 0.00 in 502 W/m2
16:50 85.3 °F 54.5 °F 30.07 in West 3 mph 12 mph 35% 0.00 in 467 W/m2
17:00 85.5 °F 53.9 °F 30.07 in WNW 5 mph 7 mph 34% 0.00 in 423 W/m2
17:10 85.3 °F 54.5 °F 30.07 in West 5 mph 8 mph 35% 0.00 in 374 W/m2
17:20 85.1 °F 54.4 °F 30.06 in West 5 mph 10 mph 35% 0.00 in 346 W/m2
17:30 84.9 °F 54.2 °F 30.06 in West 3 mph 8 mph 35% 0.00 in 318 W/m2
17:40 84.9 °F 54.2 °F 30.06 in WSW 5 mph 7 mph 35% 0.00 in 286 W/m2
17:50 84.6 °F 53.9 °F 30.06 in West 5 mph 10 mph 35% 0.00 in 254 W/m2
18:00 84.4 °F 53.7 °F 30.06 in West 6 mph 10 mph 35% 0.00 in 225 W/m2
18:10 84 °F 52.6 °F 30.06 in West 5 mph 9 mph 34% 0.00 in 198 W/m2
18:20 83.7 °F 53.1 °F 30.06 in WSW 2 mph 7 mph 35% 0.00 in 169 W/m2
18:30 83.7 °F 53.1 °F 30.06 in West 2 mph 8 mph 35% 0.00 in 138 W/m2
18:40 83.3 °F 52.8 °F 30.06 in West 3 mph 7 mph 35% 0.00 in 111 W/m2
18:50 82.8 °F 53.8 °F 30.06 in WSW 3 mph 7 mph 37% 0.00 in 88 W/m2
Knjazevac, Serbia
Compliments of Weather Underground - 2 mb